Time;durP1;ratioP1;P1;durP2;ratioP2;P2;SDS_P1;SDS_P2;PMS_P1;PMS_P2;Temp;Humidity;BMP_temperature;BMP_pressure;BME280_temperature;BME280_humidity;BME280_pressure;Samples;Min_cycle;Max_cycle;Signal;HPM_P1;HPM_P2
2023/01/12 00:02:08;;;;;;;17.30;3.50;;;9.50;79.40;;;;;;5037268;28;20452;-70
2023/01/12 00:04:34;;;;;;;16.30;3.50;;;9.60;77.70;;;;;;5032710;28;20467;-70
2023/01/12 00:07:00;;;;;;;20.83;3.70;;;9.50;79.60;;;;;;5032925;28;20383;-71
2023/01/12 00:09:26;;;;;;;17.07;3.93;;;9.50;79.90;;;;;;5015044;28;20478;-72
2023/01/12 00:11:52;;;;;;;12.88;3.30;;;9.50;81.00;;;;;;5032253;28;20925;-70
2023/01/12 00:14:17;;;;;;;21.17;4.90;;;9.50;81.50;;;;;;5032438;28;20430;-70
2023/01/12 00:16:43;;;;;;;21.23;3.33;;;9.50;82.30;;;;;;5032326;28;20379;-71
2023/01/12 00:19:14;;;;;;;16.65;3.67;;;9.40;84.50;;;;;;5032312;28;20390;-71
2023/01/12 00:24:39;;;;;;;15.32;3.40;;;9.50;84.10;;;;;;5032323;28;20407;-71
2023/01/12 00:27:09;;;;;;;14.07;3.50;;;9.50;85.30;;;;;;5032478;28;20478;-72
2023/01/12 00:29:36;;;;;;;18.13;3.70;;;9.50;85.50;;;;;;5032884;28;20391;-70
2023/01/12 00:32:02;;;;;;;13.63;3.17;;;9.50;84.10;;;;;;5030644;28;20420;-70
2023/01/12 00:34:28;;;;;;;18.63;3.65;;;9.50;84.70;;;;;;5031122;28;20474;-73
2023/01/12 00:36:54;;;;;;;13.40;3.13;;;9.50;84.60;;;;;;5034197;28;20855;-71
2023/01/12 00:39:20;;;;;;;10.80;2.85;;;9.50;86.50;;;;;;5035208;28;20466;-71
2023/01/12 00:47:14;;;;;;;11.93;2.50;;;9.60;84.50;;;;;;5031764;28;20402;-70
2023/01/12 00:49:41;;;;;;;13.13;3.90;;;9.60;85.20;;;;;;5030941;28;20390;-72
2023/01/12 00:52:09;;;;;;;17.13;3.38;;;9.50;86.10;;;;;;5031614;28;20407;-71
2023/01/12 00:54:34;;;;;;;18.33;3.53;;;9.60;86.10;;;;;;5030386;28;20387;-70
2023/01/12 00:57:01;;;;;;;10.97;3.30;;;9.60;87.30;;;;;;5031710;28;20405;-71
2023/01/12 00:59:27;;;;;;;13.27;3.30;;;9.50;87.00;;;;;;5032007;28;20440;-71
2023/01/12 01:01:53;;;;;;;12.25;3.85;;;9.60;86.70;;;;;;5031511;28;20467;-71
2023/01/12 01:04:19;;;;;;;13.75;3.42;;;9.60;86.90;;;;;;5031493;28;20391;-70
2023/01/12 01:06:44;;;;;;;12.93;3.22;;;9.60;86.40;;;;;;5030472;28;20387;-72
2023/01/12 01:09:10;;;;;;;17.95;3.60;;;9.60;87.70;;;;;;5032698;28;20391;-72
2023/01/12 01:11:36;;;;;;;17.13;3.40;;;9.60;88.10;;;;;;5035915;28;20433;-71
2023/01/12 01:14:02;;;;;;;18.83;3.50;;;9.60;87.10;;;;;;5035554;28;20395;-71
2023/01/12 01:16:29;;;;;;;13.02;3.28;;;9.60;85.40;;;;;;5037416;28;20418;-72
2023/01/12 01:18:55;;;;;;;16.25;3.20;;;9.60;84.00;;;;;;5036650;28;20781;-71
2023/01/12 01:21:21;;;;;;;14.30;3.63;;;9.60;84.60;;;;;;5035382;28;20943;-73
2023/01/12 01:23:47;;;;;;;15.38;2.70;;;9.70;84.70;;;;;;5033176;28;20447;-70
2023/01/12 01:26:20;;;;;;;16.17;4.00;;;9.70;82.50;;;;;;5031934;28;20492;-69
2023/01/12 01:28:47;;;;;;;17.40;3.40;;;9.80;81.00;;;;;;5032400;28;20441;-72
2023/01/12 01:31:15;;;;;;;11.63;3.22;;;9.70;82.50;;;;;;5035611;28;20908;-71
2023/01/12 01:33:41;;;;;;;17.35;3.55;;;9.80;80.70;;;;;;5034608;28;20658;-70
2023/01/12 01:36:07;;;;;;;13.38;4.10;;;9.80;80.90;;;;;;5035708;28;20413;-70
2023/01/12 01:38:33;;;;;;;14.33;3.70;;;9.90;77.50;;;;;;5035397;28;20387;-70
2023/01/12 01:40:59;;;;;;;17.90;3.40;;;9.90;77.30;;;;;;5031309;28;20383;-71
2023/01/12 01:43:26;;;;;;;16.25;4.25;;;9.90;77.40;;;;;;5030893;28;20390;-72
2023/01/12 01:46:09;;;;;;;17.30;3.58;;;9.90;77.10;;;;;;5030693;28;20502;-71
2023/01/12 01:48:38;;;;;;;17.90;3.40;;;10.00;75.60;;;;;;5029251;28;20943;-71
2023/01/12 01:51:08;;;;;;;17.05;3.50;;;9.90;77.00;;;;;;5030030;28;20411;-71
2023/01/12 01:53:36;;;;;;;15.45;3.33;;;9.90;78.00;;;;;;5030513;28;20384;-71
2023/01/12 01:56:17;;;;;;;15.10;3.80;;;9.90;79.20;;;;;;5030337;28;20379;-72
2023/01/12 01:58:50;;;;;;;14.30;3.28;;;9.90;79.30;;;;;;5030315;28;20466;-70
2023/01/12 02:01:15;;;;;;;14.77;3.78;;;9.90;78.10;;;;;;5030150;28;20447;-71
2023/01/12 02:03:42;;;;;;;13.90;2.80;;;10.00;74.90;;;;;;5030692;28;20851;-70
2023/01/12 02:06:08;;;;;;;15.82;3.40;;;9.90;76.50;;;;;;5032581;28;20383;-71
2023/01/12 02:08:53;;;;;;;16.65;3.90;;;9.90;75.90;;;;;;5034524;28;20417;-70
2023/01/12 02:17:16;;;;;;;17.92;4.30;;;9.90;75.10;;;;;;5035021;28;20437;-71
2023/01/12 02:19:51;;;;;;;16.52;3.90;;;10.00;73.00;;;;;;5044745;28;20454;-72
2023/01/12 02:22:27;;;;;;;14.13;3.47;;;10.00;73.90;;;;;;5045625;28;20425;-71
2023/01/12 02:25:07;;;;;;;14.57;3.92;;;10.00;73.70;;;;;;5042478;28;20740;-72
2023/01/12 02:27:48;;;;;;;15.27;3.60;;;10.00;72.90;;;;;;5039049;28;20393;-72
2023/01/12 02:31:04;;;;;;;17.30;3.60;;;10.00;73.00;;;;;;5041598;28;20378;-71
2023/01/12 02:34:15;;;;;;;15.30;3.38;;;10.10;70.80;;;;;;5040044;28;20391;-71
2023/01/12 02:36:48;;;;;;;18.83;4.22;;;10.10;71.90;;;;;;5011898;28;20389;-71
2023/01/12 02:39:22;;;;;;;22.83;4.18;;;10.10;72.30;;;;;;5031662;28;20462;-70
2023/01/12 02:45:04;;;;;;;19.08;3.95;;;10.10;71.60;;;;;;5033595;28;20463;-71
2023/01/12 02:48:07;;;;;;;20.80;4.03;;;10.10;72.90;;;;;;5033447;28;20459;-71
2023/01/12 02:51:04;;;;;;;16.38;3.80;;;10.10;72.30;;;;;;5028396;28;20788;-70
2023/01/12 02:53:37;;;;;;;16.63;3.90;;;10.10;72.90;;;;;;5033390;28;20390;-71
2023/01/12 02:56:06;;;;;;;17.98;3.90;;;10.10;74.70;;;;;;5033521;28;20473;-71
2023/01/12 02:58:35;;;;;;;19.45;3.80;;;10.10;76.30;;;;;;5033232;28;20388;-71
2023/01/12 03:01:02;;;;;;;23.83;4.10;;;10.00;76.00;;;;;;5033348;28;20438;-70
2023/01/12 03:03:29;;;;;;;17.95;4.35;;;10.00;75.90;;;;;;5033217;28;20409;-71
2023/01/12 03:05:58;;;;;;;18.63;3.45;;;10.00;76.20;;;;;;5033543;28;20379;-71
2023/01/12 03:08:27;;;;;;;17.15;4.00;;;9.90;79.10;;;;;;5033389;28;20996;-71
2023/01/12 03:11:14;;;;;;;17.48;3.85;;;9.90;79.30;;;;;;5033139;28;20856;-71
2023/01/12 03:14:01;;;;;;;18.77;4.30;;;9.80;78.90;;;;;;5034271;28;20429;-71
2023/01/12 03:16:31;;;;;;;14.38;2.90;;;9.90;78.00;;;;;;5032633;28;20379;-71
2023/01/12 03:19:04;;;;;;;16.67;3.38;;;9.90;78.30;;;;;;5033311;28;20379;-71
2023/01/12 03:21:41;;;;;;;15.85;3.47;;;9.90;78.50;;;;;;5032601;28;20379;-70
2023/01/12 03:24:13;;;;;;;18.38;4.07;;;9.90;79.10;;;;;;5033115;28;20439;-70
2023/01/12 03:26:45;;;;;;;17.80;3.90;;;9.90;79.00;;;;;;5032951;28;20875;-71
2023/01/12 03:29:36;;;;;;;20.48;3.90;;;9.90;78.10;;;;;;5033072;28;20650;-72
2023/01/12 03:32:03;;;;;;;21.55;3.50;;;9.90;79.20;;;;;;5032641;28;20745;-70
2023/01/12 03:34:30;;;;;;;15.88;3.35;;;9.90;78.20;;;;;;5031379;28;20856;-72
2023/01/12 03:37:05;;;;;;;16.52;3.75;;;9.90;79.70;;;;;;5031428;28;20470;-71
2023/01/12 03:39:57;;;;;;;14.63;3.80;;;9.90;81.30;;;;;;5032761;28;20393;-71
2023/01/12 03:42:25;;;;;;;19.80;3.88;;;9.90;80.40;;;;;;5032515;28;20854;-70
2023/01/12 03:45:13;;;;;;;14.75;3.33;;;9.90;81.30;;;;;;5032550;28;20388;-70
2023/01/12 03:47:41;;;;;;;13.98;3.00;;;9.90;80.50;;;;;;5032586;28;20382;-70
2023/01/12 03:50:13;;;;;;;20.08;3.40;;;9.90;82.00;;;;;;5032266;28;20441;-70
2023/01/12 03:52:41;;;;;;;16.88;3.50;;;9.90;82.00;;;;;;5032145;28;20833;-70
2023/01/12 03:55:10;;;;;;;18.00;3.78;;;9.90;80.80;;;;;;5032185;28;20729;-71
2023/01/12 03:57:37;;;;;;;17.90;3.80;;;9.90;81.40;;;;;;5032246;28;20946;-71
2023/01/12 04:00:06;;;;;;;15.53;3.20;;;10.00;78.80;;;;;;5032652;28;20781;-70
2023/01/12 04:02:33;;;;;;;13.18;2.92;;;9.90;80.40;;;;;;5033287;28;20387;-70
2023/01/12 04:04:58;;;;;;;15.30;2.67;;;10.00;79.60;;;;;;5033978;28;20390;-71
2023/01/12 04:07:24;;;;;;;14.88;2.95;;;9.90;79.30;;;;;;5034521;28;20398;-71
2023/01/12 04:09:49;;;;;;;13.05;3.00;;;10.00;77.80;;;;;;5033977;28;20387;-71
2023/01/12 04:12:15;;;;;;;13.68;3.78;;;10.00;78.60;;;;;;5034227;28;20464;-72
2023/01/12 04:14:42;;;;;;;15.02;3.20;;;10.00;78.80;;;;;;5033357;28;20390;-71
2023/01/12 04:17:14;;;;;;;10.88;2.50;;;10.00;77.60;;;;;;5035361;28;20379;-71
2023/01/12 04:19:40;;;;;;;16.05;3.10;;;10.00;76.50;;;;;;5036658;28;20398;-72
2023/01/12 04:24:50;;;;;;;12.70;2.75;;;10.10;76.30;;;;;;5035049;28;20406;-71
2023/01/12 04:27:17;;;;;;;16.60;3.20;;;10.10;77.00;;;;;;5036872;28;20392;-71
2023/01/12 04:29:43;;;;;;;11.55;2.90;;;10.10;77.50;;;;;;5044284;28;20387;-70
2023/01/12 04:32:09;;;;;;;15.48;2.63;;;10.10;77.20;;;;;;5038765;28;20456;-71
2023/01/12 04:34:35;;;;;;;11.57;2.25;;;10.10;77.30;;;;;;5031663;28;20379;-71
2023/01/12 04:37:01;;;;;;;9.80;2.42;;;10.10;77.90;;;;;;5031957;28;20447;-72
2023/01/12 04:39:27;;;;;;;13.10;2.90;;;10.00;79.80;;;;;;5031567;28;20386;-70
2023/01/12 04:41:53;;;;;;;13.80;2.50;;;10.00;79.60;;;;;;5031654;28;20388;-70
2023/01/12 04:44:19;;;;;;;8.67;2.50;;;10.00;81.40;;;;;;5031676;28;20390;-71
2023/01/12 04:46:44;;;;;;;8.80;2.57;;;10.00;83.60;;;;;;5032690;28;20433;-71
2023/01/12 04:49:10;;;;;;;14.10;2.60;;;9.90;83.40;;;;;;5031884;28;20399;-70
2023/01/12 04:51:35;;;;;;;15.70;2.73;;;10.00;84.60;;;;;;5031145;28;20406;-72
2023/01/12 04:54:01;;;;;;;8.80;2.50;;;9.90;86.40;;;;;;5031569;28;20391;-71
2023/01/12 04:56:26;;;;;;;11.88;2.95;;;9.90;86.10;;;;;;5031669;28;20437;-71
2023/01/12 04:58:58;;;;;;;10.25;2.63;;;9.90;86.50;;;;;;5032105;28;20387;-71
2023/01/12 05:01:25;;;;;;;10.30;2.42;;;9.90;87.70;;;;;;5035563;28;20379;-71
2023/01/12 05:03:56;;;;;;;9.27;2.60;;;9.90;88.70;;;;;;5035402;28;20478;-71
2023/01/12 05:06:23;;;;;;;9.93;2.58;;;9.80;88.20;;;;;;5035613;28;20554;-71
2023/01/12 05:11:33;;;;;;;10.50;2.42;;;9.80;88.90;;;;;;5030916;28;20455;-70
2023/01/12 05:13:59;;;;;;;7.67;2.20;;;9.80;90.80;;;;;;5031214;28;20383;-70
2023/01/12 05:16:26;;;;;;;15.20;2.40;;;9.80;90.60;;;;;;5030964;28;20383;-70
2023/01/12 05:18:54;;;;;;;8.05;2.80;;;9.80;90.30;;;;;;5030988;28;20383;-71
2023/01/12 05:21:21;;;;;;;8.98;2.30;;;9.80;89.10;;;;;;5030863;28;20888;-72
2023/01/12 05:23:48;;;;;;;12.10;2.70;;;9.90;89.00;;;;;;5030988;28;20497;-70
2023/01/12 05:26:14;;;;;;;9.82;2.10;;;9.80;89.30;;;;;;5030771;28;20433;-71
2023/01/12 05:28:40;;;;;;;7.53;2.03;;;9.90;89.40;;;;;;5031063;28;20395;-70
2023/01/12 05:31:11;;;;;;;9.27;2.50;;;9.90;88.50;;;;;;5030750;28;20383;-71
2023/01/12 05:33:38;;;;;;;14.20;2.50;;;9.90;88.50;;;;;;5030794;28;20960;-72
2023/01/12 05:36:06;;;;;;;5.38;2.40;;;9.80;90.80;;;;;;5031122;28;20387;-72
2023/01/12 05:38:31;;;;;;;8.30;2.72;;;9.80;89.80;;;;;;5030985;28;20751;-72
2023/01/12 05:41:02;;;;;;;9.70;1.90;;;9.80;90.30;;;;;;5030194;28;20379;-72
2023/01/12 05:46:29;;;;;;;11.13;2.33;;;9.80;89.10;;;;;;5017848;28;20442;-71
2023/01/12 05:48:55;;;;;;;9.83;1.90;;;9.80;88.90;;;;;;5030578;28;20459;-70
2023/01/12 05:51:22;;;;;;;6.43;1.80;;;9.70;90.10;;;;;;5030114;28;20407;-71
2023/01/12 05:53:48;;;;;;;9.90;2.13;;;9.80;90.30;;;;;;5030633;28;20386;-70
2023/01/12 05:56:20;;;;;;;8.88;2.28;;;9.70;91.20;;;;;;5030155;28;20395;-70
2023/01/12 05:58:51;;;;;;;6.90;2.13;;;9.60;92.60;;;;;;5028900;28;20464;-71
2023/01/12 06:01:17;;;;;;;8.60;2.70;;;9.60;92.60;;;;;;5029966;28;20934;-71
2023/01/12 06:03:46;;;;;;;9.93;1.88;;;9.70;92.90;;;;;;5030443;28;20411;-71
2023/01/12 06:06:12;;;;;;;7.22;1.90;;;9.70;89.10;;;;;;5030320;28;20398;-71
2023/01/12 06:08:37;;;;;;;8.10;2.03;;;9.70;89.20;;;;;;5031358;28;20383;-73
2023/01/12 06:11:03;;;;;;;5.07;1.90;;;9.70;88.80;;;;;;5031184;28;20387;-72
2023/01/12 06:16:13;;;;;;;6.67;1.70;;;9.70;89.30;;;;;;5030529;28;20402;-72
2023/01/12 06:18:39;;;;;;;8.23;2.30;;;9.60;90.10;;;;;;5030495;28;20379;-73
2023/01/12 06:21:06;;;;;;;10.88;2.40;;;9.60;92.10;;;;;;5030514;28;20380;-72
2023/01/12 06:23:32;;;;;;;8.20;2.75;;;9.60;90.90;;;;;;5030341;28;20426;-73
2023/01/12 06:26:03;;;;;;;8.20;2.57;;;9.70;91.60;;;;;;5013062;28;20907;-74
2023/01/12 06:28:29;;;;;;;9.88;2.38;;;9.60;91.00;;;;;;5030187;28;20482;-72
2023/01/12 06:30:59;;;;;;;7.18;2.10;;;9.60;91.10;;;;;;5030510;28;20415;-73
2023/01/12 06:33:26;;;;;;;8.88;2.30;;;9.70;90.90;;;;;;5030527;28;20434;-72
2023/01/12 06:35:52;;;;;;;7.17;1.80;;;9.70;91.80;;;;;;5030257;28;20475;-73
2023/01/12 06:38:19;;;;;;;6.68;2.22;;;9.70;91.60;;;;;;5030413;28;20379;-73
2023/01/12 06:40:44;;;;;;;9.05;2.40;;;9.70;91.30;;;;;;5030306;28;20978;-72
2023/01/12 06:43:10;;;;;;;15.00;3.00;;;9.70;90.10;;;;;;5030415;28;20395;-73
2023/01/12 06:45:35;;;;;;;7.78;2.60;;;9.70;91.90;;;;;;5030354;28;20482;-73
2023/01/12 06:48:01;;;;;;;8.30;2.10;;;9.70;90.40;;;;;;5029343;28;20451;-74
2023/01/12 06:50:27;;;;;;;13.10;2.80;;;9.80;89.80;;;;;;5031334;28;20395;-73
2023/01/12 06:52:54;;;;;;;8.00;2.42;;;9.90;89.70;;;;;;5033903;28;20913;-71
2023/01/12 06:55:20;;;;;;;8.65;2.60;;;9.80;89.80;;;;;;5033862;28;20387;-72
2023/01/12 06:57:45;;;;;;;10.17;2.07;;;9.80;91.50;;;;;;5034286;28;20437;-71
2023/01/12 07:00:12;;;;;;;5.60;2.20;;;9.80;90.30;;;;;;5034773;28;20390;-73
2023/01/12 07:02:38;;;;;;;8.15;2.00;;;9.90;91.40;;;;;;5034774;28;20456;-71
2023/01/12 07:05:04;;;;;;;11.70;2.37;;;9.80;92.90;;;;;;5041203;28;20402;-70
2023/01/12 07:07:30;;;;;;;10.88;2.38;;;9.90;91.90;;;;;;5048471;28;20383;-71
2023/01/12 07:09:55;;;;;;;8.67;2.00;;;9.90;93.00;;;;;;5044390;28;20398;-76
2023/01/12 07:12:21;;;;;;;9.57;2.03;;;9.90;91.80;;;;;;5036792;28;20463;-72
2023/01/12 07:14:46;;;;;;;6.40;2.30;;;9.90;93.00;;;;;;5040357;28;20804;-72
2023/01/12 07:17:12;;;;;;;8.85;2.40;;;9.90;94.30;;;;;;5042718;28;20382;-72
2023/01/12 07:19:38;;;;;;;11.15;2.55;;;9.90;93.80;;;;;;5041220;28;20384;-71
2023/01/12 07:22:03;;;;;;;9.15;2.20;;;10.00;92.30;;;;;;5036978;28;20403;-70
2023/01/12 07:24:30;;;;;;;9.20;2.10;;;10.00;92.90;;;;;;5034288;28;20486;-71
2023/01/12 07:26:57;;;;;;;7.83;2.30;;;10.00;94.80;;;;;;5034583;28;20423;-70
2023/01/12 07:29:23;;;;;;;9.20;2.53;;;9.90;95.60;;;;;;5037780;28;20395;-71
2023/01/12 07:31:49;;;;;;;8.13;2.13;;;9.90;97.00;;;;;;5034704;28;20407;-71
2023/01/12 07:34:15;;;;;;;16.45;2.78;;;10.00;96.50;;;;;;5033201;28;20383;-70
2023/01/12 07:36:41;;;;;;;8.80;1.85;;;10.00;95.00;;;;;;5033649;28;20416;-71
2023/01/12 07:39:07;;;;;;;11.25;2.80;;;10.00;95.60;;;;;;5034683;28;20751;-71
2023/01/12 07:44:17;;;;;;;6.78;2.10;;;10.10;95.60;;;;;;5040606;28;20906;-71
2023/01/12 07:46:43;;;;;;;11.10;2.50;;;10.10;96.90;;;;;;5032715;28;20391;-71
2023/01/12 07:49:09;;;;;;;10.68;2.80;;;10.10;95.90;;;;;;5032629;28;20383;-70
2023/01/12 07:51:34;;;;;;;13.73;2.70;;;10.10;97.50;;;;;;5032309;28;20434;-72
2023/01/12 07:54:00;;;;;;;6.37;2.17;;;10.10;97.40;;;;;;5031900;28;20406;-70
2023/01/12 07:56:25;;;;;;;6.43;2.10;;;10.10;97.60;;;;;;5031446;28;20501;-70
2023/01/12 07:58:51;;;;;;;9.32;2.20;;;10.10;98.70;;;;;;5032403;28;20383;-73
2023/01/12 08:01:17;;;;;;;7.47;1.75;;;10.20;96.80;;;;;;5031781;28;20441;-71
2023/01/12 08:03:42;;;;;;;9.48;2.42;;;10.20;96.90;;;;;;5031864;28;20387;-70
2023/01/12 08:06:08;;;;;;;16.77;5.95;;;10.20;97.30;;;;;;5032573;28;20391;-72
2023/01/12 08:08:34;;;;;;;10.30;3.63;;;10.20;97.70;;;;;;5032554;28;20411;-71
2023/01/12 08:11:02;;;;;;;9.48;1.98;;;10.20;99.10;;;;;;5032555;28;20466;-71
2023/01/12 08:13:28;;;;;;;8.90;2.30;;;10.30;96.50;;;;;;5024328;28;20423;-72
2023/01/12 08:15:54;;;;;;;6.25;1.60;;;10.30;97.00;;;;;;5015786;28;20392;-72
2023/01/12 08:18:40;;;;;;;9.70;2.22;;;10.30;98.40;;;;;;5028853;28;20945;-71
2023/01/12 08:21:11;;;;;;;9.40;2.28;;;10.30;96.10;;;;;;5027271;28;20872;-71
2023/01/12 08:23:44;;;;;;;4.82;1.50;;;10.30;96.80;;;;;;5017414;28;20432;-70
2023/01/12 08:26:22;;;;;;;6.78;1.92;;;10.40;95.20;;;;;;5029389;28;20409;-73
2023/01/12 08:28:55;;;;;;;7.85;2.78;;;10.40;95.50;;;;;;5024380;28;20501;-73
2023/01/12 08:31:23;;;;;;;10.73;2.60;;;10.40;95.90;;;;;;5027292;28;20777;-72
2023/01/12 08:33:51;;;;;;;8.30;2.20;;;10.40;95.60;;;;;;5023330;28;20434;-71
2023/01/12 08:36:17;;;;;;;4.90;1.80;;;10.50;93.40;;;;;;5029914;28;20431;-72
2023/01/12 08:38:43;;;;;;;5.00;1.52;;;10.50;94.40;;;;;;5028559;28;20816;-71
2023/01/12 08:44:02;;;;;;;3.65;1.83;;;10.50;95.90;;;;;;5010230;28;20856;-70
2023/01/12 08:46:38;;;;;;;4.70;1.60;;;10.50;94.10;;;;;;5010069;28;20787;-70
2023/01/12 08:49:08;;;;;;;5.63;1.50;;;10.50;92.90;;;;;;5011558;28;20387;-73
2023/01/12 08:51:34;;;;;;;6.60;1.60;;;10.60;92.70;;;;;;5010230;28;20494;-70
2023/01/12 08:54:00;;;;;;;6.10;1.80;;;10.60;94.10;;;;;;5010080;28;20885;-69
2023/01/12 08:56:26;;;;;;;5.35;1.60;;;10.60;93.60;;;;;;5009473;28;20427;-71
2023/01/12 08:58:52;;;;;;;5.97;1.80;;;10.60;93.40;;;;;;5022195;28;20391;-70
2023/01/12 09:01:18;;;;;;;5.07;1.40;;;10.60;91.40;;;;;;5028891;28;20417;-69
2023/01/12 09:03:45;;;;;;;5.43;1.27;;;10.70;91.60;;;;;;5028257;28;21142;-72
2023/01/12 09:06:13;;;;;;;6.93;1.30;;;10.70;91.40;;;;;;5024834;28;20414;-71
2023/01/12 09:08:39;;;;;;;9.13;1.58;;;10.70;92.30;;;;;;5029265;28;20398;-71
2023/01/12 09:11:09;;;;;;;5.20;1.33;;;10.80;89.80;;;;;;5027525;28;20395;-70
2023/01/12 09:13:35;;;;;;;3.60;1.30;;;10.80;90.90;;;;;;5029038;28;20956;-70
2023/01/12 09:16:05;;;;;;;7.47;1.70;;;10.80;92.40;;;;;;5026489;28;20459;-73
2023/01/12 09:18:31;;;;;;;4.00;1.40;;;10.80;90.70;;;;;;5027995;28;20395;-70
2023/01/12 09:21:11;;;;;;;3.90;1.40;;;10.80;91.00;;;;;;5028648;28;20953;-71
2023/01/12 09:23:38;;;;;;;3.80;1.58;;;10.80;90.10;;;;;;5029031;28;20405;-72
2023/01/12 09:26:08;;;;;;;2.65;1.35;;;10.90;90.20;;;;;;5028621;28;20478;-71
2023/01/12 09:28:35;;;;;;;5.45;1.67;;;10.90;91.00;;;;;;5029010;28;20482;-72
2023/01/12 09:31:01;;;;;;;3.17;1.45;;;10.90;91.10;;;;;;5028861;28;20744;-72
2023/01/12 09:33:29;;;;;;;4.85;1.60;;;10.90;90.60;;;;;;5013994;28;20396;-73
2023/01/12 09:35:59;;;;;;;5.50;1.40;;;11.00;89.90;;;;;;5009680;28;20384;-72
2023/01/12 09:38:25;;;;;;;3.45;1.30;;;11.00;89.90;;;;;;5023694;28;20474;-73
2023/01/12 09:40:50;;;;;;;4.40;1.43;;;11.00;90.10;;;;;;5027387;28;20423;-72
2023/01/12 09:48:44;;;;;;;5.70;1.30;;;11.10;86.60;;;;;;5041183;28;20379;-72
2023/01/12 09:51:17;;;;;;;4.15;1.50;;;11.10;86.90;;;;;;5019158;28;20400;-71
2023/01/12 09:53:44;;;;;;;2.80;1.40;;;11.20;87.10;;;;;;5009458;28;20742;-71
2023/01/12 09:56:24;;;;;;;5.63;1.40;;;11.30;85.30;;;;;;5008363;28;20411;-70
2023/01/12 09:59:11;;;;;;;9.05;1.40;;;11.30;85.00;;;;;;5009848;28;20685;-71
2023/01/12 10:01:37;;;;;;;2.80;1.63;;;11.30;85.50;;;;;;5009011;28;20391;-72
2023/01/12 10:04:04;;;;;;;6.17;1.50;;;11.30;86.70;;;;;;5009867;28;20410;-72
2023/01/12 10:06:30;;;;;;;2.25;1.40;;;11.30;86.50;;;;;;5010870;28;20395;-72
2023/01/12 10:08:59;;;;;;;5.80;1.70;;;11.40;83.80;;;;;;5011083;28;20384;-72
2023/01/12 10:11:53;;;;;;;5.95;1.90;;;11.40;82.50;;;;;;5016485;28;20413;-73
2023/01/12 10:14:39;;;;;;;4.43;1.40;;;11.40;84.10;;;;;;5028993;28;20475;-72
2023/01/12 10:17:12;;;;;;;6.25;2.20;;;11.40;84.00;;;;;;5034936;28;20397;-74
2023/01/12 10:20:02;;;;;;;7.05;1.80;;;11.50;83.10;;;;;;5010175;28;20387;-73
2023/01/12 10:22:37;;;;;;;5.90;2.20;;;11.50;82.50;;;;;;5014487;28;20877;-72
2023/01/12 10:25:11;;;;;;;5.95;1.65;;;11.50;84.40;;;;;;5019489;28;20410;-72
2023/01/12 10:27:41;;;;;;;2.92;1.42;;;11.50;83.20;;;;;;5030146;28;20389;-72
2023/01/12 10:30:32;;;;;;;5.03;1.70;;;11.50;84.60;;;;;;5012815;28;20392;-72
2023/01/12 10:33:20;;;;;;;2.72;1.10;;;11.50;85.10;;;;;;5022212;28;20419;-71
2023/01/12 10:36:14;;;;;;;4.35;1.58;;;11.50;85.20;;;;;;5022506;28;20414;-74
2023/01/12 10:39:02;;;;;;;4.90;1.77;;;11.50;85.30;;;;;;5012131;28;20385;-70
2023/01/12 10:41:29;;;;;;;8.13;1.80;;;11.50;85.80;;;;;;5012577;28;20404;-71
2023/01/12 10:43:55;;;;;;;8.25;2.00;;;11.50;86.90;;;;;;5027426;28;20406;-71
2023/01/12 10:46:23;;;;;;;3.40;1.13;;;11.50;87.40;;;;;;5026006;28;20404;-72
2023/01/12 10:48:51;;;;;;;4.57;1.50;;;11.50;87.60;;;;;;5011117;28;20878;-73
2023/01/12 10:51:28;;;;;;;6.85;1.50;;;11.50;88.50;;;;;;5012727;28;20389;-72
2023/01/12 10:53:57;;;;;;;4.03;1.65;;;11.50;88.60;;;;;;5013583;28;20505;-72
2023/01/12 10:56:36;;;;;;;6.05;1.55;;;11.50;89.00;;;;;;5023965;28;20461;-72
2023/01/12 10:59:05;;;;;;;8.20;1.63;;;11.60;86.60;;;;;;5025309;28;20395;-71
2023/01/12 11:01:49;;;;;;;3.10;1.20;;;11.60;84.50;;;;;;5022770;28;20400;-72
2023/01/12 11:04:21;;;;;;;4.40;1.30;;;11.60;83.50;;;;;;5012618;28;20467;-73
2023/01/12 11:06:56;;;;;;;4.73;1.57;;;11.60;83.70;;;;;;5032037;28;20386;-72
2023/01/12 11:09:25;;;;;;;4.03;1.40;;;11.60;83.80;;;;;;5031752;28;20391;-71
2023/01/12 11:11:59;;;;;;;4.70;1.90;;;11.60;87.00;;;;;;5016896;28;20465;-72
2023/01/12 11:14:31;;;;;;;3.63;1.30;;;11.60;85.60;;;;;;5028602;28;20470;-72
2023/01/12 11:17:14;;;;;;;4.82;1.45;;;11.60;87.10;;;;;;5026828;28;20839;-74
2023/01/12 11:19:43;;;;;;;5.50;1.40;;;11.60;87.60;;;;;;5024628;28;20427;-72
2023/01/12 11:22:19;;;;;;;8.57;1.42;;;11.60;89.10;;;;;;5027188;28;20399;-72
2023/01/12 11:24:55;;;;;;;7.03;2.15;;;11.60;88.80;;;;;;5017870;28;20405;-74
2023/01/12 11:27:38;;;;;;;3.45;1.70;;;11.60;88.80;;;;;;5025518;28;20414;-74
2023/01/12 11:30:11;;;;;;;7.20;1.60;;;11.60;88.30;;;;;;5051884;28;20417;-71
2023/01/12 11:32:47;;;;;;;5.20;1.70;;;11.60;88.60;;;;;;5052098;28;20397;-73
2023/01/12 11:35:24;;;;;;;3.83;1.45;;;11.70;87.90;;;;;;5052448;28;20494;-73
2023/01/12 11:37:56;;;;;;;3.33;1.45;;;11.70;87.90;;;;;;5062560;28;20739;-71
2023/01/12 11:40:31;;;;;;;5.77;1.60;;;11.70;86.60;;;;;;5063939;28;20428;-72
2023/01/12 11:46:04;;;;;;;6.20;1.60;;;11.70;88.10;;;;;;5053483;28;20404;-74
2023/01/12 11:48:42;;;;;;;6.17;1.70;;;11.70;86.40;;;;;;5057182;28;20390;-75
2023/01/12 11:51:14;;;;;;;5.65;1.55;;;11.70;86.90;;;;;;5057077;28;20412;-73
2023/01/12 11:53:40;;;;;;;7.60;2.00;;;11.70;87.10;;;;;;5058075;28;20476;-73
2023/01/12 11:56:46;;;;;;;8.15;1.50;;;11.70;86.10;;;;;;5065245;28;20382;-71
2023/01/12 11:59:22;;;;;;;5.20;1.80;;;11.70;85.90;;;;;;5064764;28;20388;-71
2023/01/12 12:02:22;;;;;;;8.30;1.80;;;11.80;84.40;;;;;;5061638;28;20382;-72
2023/01/12 12:05:04;;;;;;;8.57;1.77;;;11.80;84.70;;;;;;5052730;28;20428;-70
2023/01/12 12:07:58;;;;;;;5.47;1.60;;;11.80;85.40;;;;;;5053391;28;20814;-70
2023/01/12 12:10:53;;;;;;;9.93;1.88;;;11.80;83.80;;;;;;5033040;28;20405;-71
2023/01/12 12:13:24;;;;;;;7.32;1.95;;;11.90;85.10;;;;;;5052079;28;20774;-70
2023/01/12 12:16:16;;;;;;;9.45;2.35;;;11.90;85.50;;;;;;5052203;28;20401;-70
2023/01/12 12:18:59;;;;;;;6.15;1.50;;;11.80;84.70;;;;;;5052196;28;20847;-71
2023/01/12 12:21:54;;;;;;;5.63;1.60;;;11.90;85.10;;;;;;5050428;28;20397;-71
2023/01/12 12:24:47;;;;;;;6.15;1.55;;;11.90;84.10;;;;;;5037166;28;20432;-72
2023/01/12 12:27:51;;;;;;;4.90;1.40;;;11.90;83.40;;;;;;5052717;28;20713;-70
2023/01/12 12:30:43;;;;;;;5.50;1.50;;;11.80;83.10;;;;;;5035890;28;20397;-71
2023/01/12 12:33:49;;;;;;;4.25;1.30;;;11.90;82.50;;;;;;5051735;28;20405;-72
2023/01/12 12:36:33;;;;;;;6.37;1.30;;;11.90;82.80;;;;;;5052028;28;20859;-71
2023/01/12 12:39:13;;;;;;;4.82;1.15;;;11.90;82.70;;;;;;5052995;28;20369;-71
2023/01/12 12:45:16;;;;;;;2.50;1.30;;;11.90;84.10;;;;;;5052775;28;20917;-70
2023/01/12 12:47:48;;;;;;;3.90;1.48;;;11.90;82.60;;;;;;5064988;28;20387;-71
2023/01/12 12:50:21;;;;;;;2.00;0.90;;;11.90;82.50;;;;;;5054182;28;20393;-72
2023/01/12 12:52:58;;;;;;;2.40;1.00;;;11.90;84.30;;;;;;5051391;28;20409;-72
2023/01/12 12:55:25;;;;;;;3.90;1.30;;;12.00;83.80;;;;;;5051879;28;20377;-71
2023/01/12 12:58:03;;;;;;;3.30;1.50;;;12.00;84.30;;;;;;5050840;28;20468;-73
2023/01/12 13:00:41;;;;;;;1.92;1.10;;;12.00;83.80;;;;;;5052161;28;20445;-71
2023/01/12 13:03:07;;;;;;;3.50;1.10;;;12.10;79.20;;;;;;5051414;28;20447;-71
2023/01/12 13:05:41;;;;;;;3.38;1.00;;;12.00;81.20;;;;;;5051489;28;20885;-72
2023/01/12 13:08:25;;;;;;;1.50;0.98;;;12.00;82.20;;;;;;5054917;28;20386;-72
2023/01/12 13:10:56;;;;;;;3.55;1.10;;;12.00;80.80;;;;;;5053647;28;20396;-73
2023/01/12 13:13:23;;;;;;;2.63;1.10;;;12.00;81.30;;;;;;5052336;28;20408;-73
2023/01/12 13:15:49;;;;;;;3.10;1.10;;;11.90;83.70;;;;;;5054226;28;20385;-72
2023/01/12 13:18:42;;;;;;;2.55;1.30;;;11.90;84.10;;;;;;5061467;28;20378;-71
2023/01/12 13:21:27;;;;;;;3.55;1.10;;;11.90;83.40;;;;;;5053411;28;20779;-70
2023/01/12 13:24:20;;;;;;;5.50;1.27;;;11.90;81.20;;;;;;5033411;28;20390;-70
2023/01/12 13:26:51;;;;;;;2.45;1.30;;;11.90;83.70;;;;;;5051284;28;20385;-72
2023/01/12 13:29:25;;;;;;;3.67;1.20;;;11.80;85.40;;;;;;5059422;28;20389;-70
2023/01/12 13:32:30;;;;;;;2.70;1.20;;;11.80;85.10;;;;;;5039172;28;20780;-70
2023/01/12 13:34:55;;;;;;;2.80;1.00;;;11.80;86.50;;;;;;5012115;28;20415;-71
2023/01/12 13:37:35;;;;;;;4.10;1.33;;;11.70;88.10;;;;;;5023502;28;20383;-72
2023/01/12 13:40:27;;;;;;;1.95;1.25;;;11.70;87.90;;;;;;5017799;28;20774;-71
2023/01/12 13:43:15;;;;;;;2.55;1.30;;;11.70;87.80;;;;;;5012744;28;20393;-70
2023/01/12 13:45:52;;;;;;;2.20;0.98;;;11.70;87.50;;;;;;5017747;28;20496;-70
2023/01/12 13:48:19;;;;;;;3.20;1.55;;;11.80;84.80;;;;;;5028363;28;20394;-72
2023/01/12 13:50:51;;;;;;;2.90;1.30;;;11.70;86.50;;;;;;5027427;28;20420;-72
2023/01/12 13:53:26;;;;;;;4.50;1.20;;;11.80;87.90;;;;;;5011734;28;20425;-72
2023/01/12 13:55:58;;;;;;;6.10;1.20;;;11.80;87.40;;;;;;5013107;28;20405;-71
2023/01/12 13:58:25;;;;;;;3.10;1.15;;;11.80;87.50;;;;;;5028275;28;20529;-73